sensor_id;sensor_type;location;lat;lon;timestamp;P1;durP1;ratioP1;P2;durP2;ratioP2
64110;SDS011;50401;48.188;11.566;2023-08-08T00:01:23;4.97;;;1.48;;
64110;SDS011;50401;48.188;11.566;2023-08-08T00:03:48;2.28;;;1.10;;
64110;SDS011;50401;48.188;11.566;2023-08-08T00:06:14;4.30;;;1.50;;
64110;SDS011;50401;48.188;11.566;2023-08-08T00:08:39;4.97;;;1.40;;
64110;SDS011;50401;48.188;11.566;2023-08-08T00:11:05;2.28;;;1.63;;
64110;SDS011;50401;48.188;11.566;2023-08-08T00:13:30;6.72;;;1.52;;
64110;SDS011;50401;48.188;11.566;2023-08-08T00:15:56;1.05;;;0.95;;
64110;SDS011;50401;48.188;11.566;2023-08-08T00:18:21;1.92;;;1.27;;
64110;SDS011;50401;48.188;11.566;2023-08-08T00:20:46;2.00;;;1.25;;
64110;SDS011;50401;48.188;11.566;2023-08-08T00:23:12;3.55;;;1.63;;
64110;SDS011;50401;48.188;11.566;2023-08-08T00:25:37;1.38;;;1.15;;
64110;SDS011;50401;48.188;11.566;2023-08-08T00:28:02;1.83;;;1.40;;
64110;SDS011;50401;48.188;11.566;2023-08-08T00:30:28;4.72;;;1.50;;
64110;SDS011;50401;48.188;11.566;2023-08-08T00:32:53;3.97;;;1.50;;
64110;SDS011;50401;48.188;11.566;2023-08-08T00:35:19;2.85;;;1.20;;
64110;SDS011;50401;48.188;11.566;2023-08-08T00:37:44;3.05;;;1.40;;
64110;SDS011;50401;48.188;11.566;2023-08-08T00:40:10;5.63;;;1.48;;
64110;SDS011;50401;48.188;11.566;2023-08-08T00:42:35;2.67;;;1.40;;
64110;SDS011;50401;48.188;11.566;2023-08-08T00:45:00;3.38;;;1.75;;
64110;SDS011;50401;48.188;11.566;2023-08-08T00:47:32;1.85;;;1.38;;
64110;SDS011;50401;48.188;11.566;2023-08-08T00:49:58;2.50;;;1.58;;
64110;SDS011;50401;48.188;11.566;2023-08-08T00:52:25;4.72;;;1.80;;
64110;SDS011;50401;48.188;11.566;2023-08-08T00:54:50;1.40;;;1.30;;
64110;SDS011;50401;48.188;11.566;2023-08-08T00:57:17;2.78;;;1.30;;
64110;SDS011;50401;48.188;11.566;2023-08-08T00:59:42;5.63;;;1.80;;
64110;SDS011;50401;48.188;11.566;2023-08-08T01:02:07;3.03;;;2.03;;
64110;SDS011;50401;48.188;11.566;2023-08-08T01:04:33;3.75;;;1.90;;
64110;SDS011;50401;48.188;11.566;2023-08-08T01:07:05;2.40;;;1.27;;
64110;SDS011;50401;48.188;11.566;2023-08-08T01:09:50;3.78;;;1.33;;
64110;SDS011;50401;48.188;11.566;2023-08-08T01:12:22;2.63;;;1.67;;
64110;SDS011;50401;48.188;11.566;2023-08-08T01:14:49;3.25;;;1.45;;
64110;SDS011;50401;48.188;11.566;2023-08-08T01:17:15;2.65;;;1.65;;
64110;SDS011;50401;48.188;11.566;2023-08-08T01:19:41;3.85;;;1.40;;
64110;SDS011;50401;48.188;11.566;2023-08-08T01:22:09;3.83;;;1.45;;
64110;SDS011;50401;48.188;11.566;2023-08-08T01:24:45;5.80;;;1.55;;
64110;SDS011;50401;48.188;11.566;2023-08-08T01:27:11;2.88;;;1.67;;
64110;SDS011;50401;48.188;11.566;2023-08-08T01:29:36;3.35;;;1.23;;
64110;SDS011;50401;48.188;11.566;2023-08-08T01:32:02;3.10;;;1.67;;
64110;SDS011;50401;48.188;11.566;2023-08-08T01:34:28;4.18;;;1.25;;
64110;SDS011;50401;48.188;11.566;2023-08-08T01:37:02;5.35;;;1.55;;
64110;SDS011;50401;48.188;11.566;2023-08-08T01:39:45;3.92;;;1.50;;
64110;SDS011;50401;48.188;11.566;2023-08-08T01:42:11;3.22;;;1.27;;
64110;SDS011;50401;48.188;11.566;2023-08-08T01:44:39;2.17;;;1.40;;
64110;SDS011;50401;48.188;11.566;2023-08-08T01:47:06;1.85;;;1.13;;
64110;SDS011;50401;48.188;11.566;2023-08-08T01:49:32;2.55;;;1.65;;
64110;SDS011;50401;48.188;11.566;2023-08-08T01:51:58;4.72;;;1.67;;
64110;SDS011;50401;48.188;11.566;2023-08-08T01:54:23;6.32;;;1.95;;
64110;SDS011;50401;48.188;11.566;2023-08-08T01:56:48;4.03;;;1.92;;
64110;SDS011;50401;48.188;11.566;2023-08-08T01:59:14;2.55;;;1.65;;
64110;SDS011;50401;48.188;11.566;2023-08-08T02:01:39;2.95;;;1.60;;
64110;SDS011;50401;48.188;11.566;2023-08-08T02:04:04;2.78;;;1.60;;
64110;SDS011;50401;48.188;11.566;2023-08-08T02:06:30;2.00;;;1.45;;
64110;SDS011;50401;48.188;11.566;2023-08-08T02:08:55;1.83;;;1.20;;
64110;SDS011;50401;48.188;11.566;2023-08-08T02:11:20;2.45;;;1.50;;
64110;SDS011;50401;48.188;11.566;2023-08-08T02:13:46;4.18;;;1.40;;
64110;SDS011;50401;48.188;11.566;2023-08-08T02:16:12;4.43;;;1.70;;
64110;SDS011;50401;48.188;11.566;2023-08-08T02:18:37;2.40;;;1.45;;
64110;SDS011;50401;48.188;11.566;2023-08-08T02:21:05;2.73;;;1.40;;
64110;SDS011;50401;48.188;11.566;2023-08-08T02:23:31;3.70;;;1.52;;
64110;SDS011;50401;48.188;11.566;2023-08-08T02:25:57;6.45;;;1.45;;
64110;SDS011;50401;48.188;11.566;2023-08-08T02:28:22;4.35;;;1.80;;
64110;SDS011;50401;48.188;11.566;2023-08-08T02:30:47;9.30;;;1.60;;
64110;SDS011;50401;48.188;11.566;2023-08-08T02:33:13;4.55;;;1.60;;
64110;SDS011;50401;48.188;11.566;2023-08-08T02:35:38;2.65;;;1.52;;
64110;SDS011;50401;48.188;11.566;2023-08-08T02:38:03;1.35;;;1.17;;
64110;SDS011;50401;48.188;11.566;2023-08-08T02:40:29;4.88;;;1.60;;
64110;SDS011;50401;48.188;11.566;2023-08-08T02:42:54;5.55;;;2.33;;
64110;SDS011;50401;48.188;11.566;2023-08-08T02:45:19;6.28;;;1.70;;
64110;SDS011;50401;48.188;11.566;2023-08-08T02:47:45;5.10;;;1.63;;
64110;SDS011;50401;48.188;11.566;2023-08-08T02:50:10;6.65;;;1.63;;
64110;SDS011;50401;48.188;11.566;2023-08-08T02:52:35;3.25;;;1.25;;
64110;SDS011;50401;48.188;11.566;2023-08-08T02:55:01;2.72;;;1.20;;
64110;SDS011;50401;48.188;11.566;2023-08-08T02:57:27;2.55;;;1.48;;
64110;SDS011;50401;48.188;11.566;2023-08-08T02:59:52;5.57;;;1.40;;
64110;SDS011;50401;48.188;11.566;2023-08-08T03:02:18;4.03;;;1.65;;
64110;SDS011;50401;48.188;11.566;2023-08-08T03:04:43;3.58;;;1.65;;
64110;SDS011;50401;48.188;11.566;2023-08-08T03:07:09;3.60;;;1.75;;
64110;SDS011;50401;48.188;11.566;2023-08-08T03:09:34;2.38;;;1.17;;
64110;SDS011;50401;48.188;11.566;2023-08-08T03:12:00;1.45;;;1.15;;
64110;SDS011;50401;48.188;11.566;2023-08-08T03:14:25;7.60;;;1.33;;
64110;SDS011;50401;48.188;11.566;2023-08-08T03:16:50;4.07;;;1.38;;
64110;SDS011;50401;48.188;11.566;2023-08-08T03:19:16;7.93;;;1.33;;
64110;SDS011;50401;48.188;11.566;2023-08-08T03:21:41;4.68;;;1.48;;
64110;SDS011;50401;48.188;11.566;2023-08-08T03:24:06;3.10;;;1.65;;
64110;SDS011;50401;48.188;11.566;2023-08-08T03:26:32;2.78;;;1.48;;
64110;SDS011;50401;48.188;11.566;2023-08-08T03:28:57;8.02;;;1.58;;
64110;SDS011;50401;48.188;11.566;2023-08-08T03:31:22;3.20;;;1.60;;
64110;SDS011;50401;48.188;11.566;2023-08-08T03:33:49;4.88;;;1.60;;
64110;SDS011;50401;48.188;11.566;2023-08-08T03:36:14;3.95;;;1.70;;
64110;SDS011;50401;48.188;11.566;2023-08-08T03:38:39;3.67;;;1.50;;
64110;SDS011;50401;48.188;11.566;2023-08-08T03:41:05;3.92;;;1.38;;
64110;SDS011;50401;48.188;11.566;2023-08-08T03:43:31;4.03;;;1.95;;
64110;SDS011;50401;48.188;11.566;2023-08-08T03:45:56;3.65;;;1.98;;
64110;SDS011;50401;48.188;11.566;2023-08-08T03:48:21;4.88;;;1.63;;
64110;SDS011;50401;48.188;11.566;2023-08-08T03:50:47;2.88;;;1.60;;
64110;SDS011;50401;48.188;11.566;2023-08-08T03:53:12;7.93;;;1.85;;
64110;SDS011;50401;48.188;11.566;2023-08-08T03:55:38;4.25;;;1.75;;
64110;SDS011;50401;48.188;11.566;2023-08-08T03:58:03;6.32;;;1.83;;
64110;SDS011;50401;48.188;11.566;2023-08-08T04:00:30;3.78;;;1.65;;
64110;SDS011;50401;48.188;11.566;2023-08-08T04:02:56;5.68;;;1.60;;
64110;SDS011;50401;48.188;11.566;2023-08-08T04:05:21;7.43;;;2.38;;
64110;SDS011;50401;48.188;11.566;2023-08-08T04:07:46;4.75;;;1.98;;
64110;SDS011;50401;48.188;11.566;2023-08-08T04:10:12;8.63;;;1.77;;
64110;SDS011;50401;48.188;11.566;2023-08-08T04:12:38;6.60;;;2.10;;
64110;SDS011;50401;48.188;11.566;2023-08-08T04:15:03;5.70;;;2.15;;
64110;SDS011;50401;48.188;11.566;2023-08-08T04:17:29;6.90;;;2.17;;
64110;SDS011;50401;48.188;11.566;2023-08-08T04:19:54;4.55;;;2.05;;
64110;SDS011;50401;48.188;11.566;2023-08-08T04:22:19;3.47;;;1.67;;
64110;SDS011;50401;48.188;11.566;2023-08-08T04:24:45;6.68;;;2.17;;
64110;SDS011;50401;48.188;11.566;2023-08-08T04:27:10;4.90;;;1.98;;
64110;SDS011;50401;48.188;11.566;2023-08-08T04:29:36;10.50;;;2.28;;
64110;SDS011;50401;48.188;11.566;2023-08-08T04:32:01;5.40;;;1.58;;
64110;SDS011;50401;48.188;11.566;2023-08-08T04:34:27;11.90;;;2.80;;
64110;SDS011;50401;48.188;11.566;2023-08-08T04:36:52;4.63;;;2.03;;
64110;SDS011;50401;48.188;11.566;2023-08-08T04:39:17;12.10;;;2.78;;
64110;SDS011;50401;48.188;11.566;2023-08-08T04:41:43;10.43;;;2.20;;
64110;SDS011;50401;48.188;11.566;2023-08-08T04:44:08;6.90;;;2.22;;
64110;SDS011;50401;48.188;11.566;2023-08-08T04:46:33;7.85;;;2.50;;
64110;SDS011;50401;48.188;11.566;2023-08-08T04:48:59;8.75;;;2.67;;
64110;SDS011;50401;48.188;11.566;2023-08-08T04:51:25;12.40;;;2.28;;
64110;SDS011;50401;48.188;11.566;2023-08-08T04:53:50;5.13;;;2.65;;
64110;SDS011;50401;48.188;11.566;2023-08-08T04:56:16;7.25;;;2.33;;
64110;SDS011;50401;48.188;11.566;2023-08-08T04:58:41;4.88;;;2.20;;
64110;SDS011;50401;48.188;11.566;2023-08-08T05:01:06;11.90;;;2.90;;
64110;SDS011;50401;48.188;11.566;2023-08-08T05:03:36;6.53;;;2.47;;
64110;SDS011;50401;48.188;11.566;2023-08-08T05:06:02;6.95;;;2.47;;
64110;SDS011;50401;48.188;11.566;2023-08-08T05:08:28;5.78;;;2.08;;
64110;SDS011;50401;48.188;11.566;2023-08-08T05:10:53;14.27;;;2.80;;
64110;SDS011;50401;48.188;11.566;2023-08-08T05:13:19;9.82;;;2.25;;
64110;SDS011;50401;48.188;11.566;2023-08-08T05:15:44;12.05;;;3.03;;
64110;SDS011;50401;48.188;11.566;2023-08-08T05:18:09;9.13;;;3.45;;
64110;SDS011;50401;48.188;11.566;2023-08-08T05:20:35;7.50;;;2.85;;
64110;SDS011;50401;48.188;11.566;2023-08-08T05:23:00;8.73;;;2.85;;
64110;SDS011;50401;48.188;11.566;2023-08-08T05:25:26;15.90;;;3.92;;
64110;SDS011;50401;48.188;11.566;2023-08-08T05:27:51;10.77;;;2.67;;
64110;SDS011;50401;48.188;11.566;2023-08-08T05:30:18;10.05;;;2.40;;
64110;SDS011;50401;48.188;11.566;2023-08-08T05:32:44;7.68;;;3.00;;
64110;SDS011;50401;48.188;11.566;2023-08-08T05:35:09;6.90;;;2.65;;
64110;SDS011;50401;48.188;11.566;2023-08-08T05:37:35;7.40;;;2.65;;
64110;SDS011;50401;48.188;11.566;2023-08-08T05:40:00;6.22;;;3.05;;
64110;SDS011;50401;48.188;11.566;2023-08-08T05:42:26;10.10;;;2.60;;
64110;SDS011;50401;48.188;11.566;2023-08-08T05:44:51;14.40;;;2.85;;
64110;SDS011;50401;48.188;11.566;2023-08-08T05:47:16;9.55;;;3.35;;
64110;SDS011;50401;48.188;11.566;2023-08-08T05:49:42;7.30;;;3.05;;
64110;SDS011;50401;48.188;11.566;2023-08-08T05:52:07;10.75;;;3.33;;
64110;SDS011;50401;48.188;11.566;2023-08-08T05:54:33;4.28;;;2.90;;
64110;SDS011;50401;48.188;11.566;2023-08-08T05:56:58;7.95;;;2.70;;
64110;SDS011;50401;48.188;11.566;2023-08-08T05:59:24;7.10;;;2.47;;
64110;SDS011;50401;48.188;11.566;2023-08-08T06:01:49;6.88;;;2.60;;
64110;SDS011;50401;48.188;11.566;2023-08-08T06:04:15;14.25;;;2.92;;
64110;SDS011;50401;48.188;11.566;2023-08-08T06:06:41;10.07;;;3.53;;
64110;SDS011;50401;48.188;11.566;2023-08-08T06:09:06;16.00;;;2.72;;
64110;SDS011;50401;48.188;11.566;2023-08-08T06:11:33;10.93;;;3.47;;
64110;SDS011;50401;48.188;11.566;2023-08-08T06:13:59;11.30;;;2.00;;
64110;SDS011;50401;48.188;11.566;2023-08-08T06:16:25;3.83;;;1.70;;
64110;SDS011;50401;48.188;11.566;2023-08-08T06:18:51;8.13;;;2.25;;
64110;SDS011;50401;48.188;11.566;2023-08-08T06:21:17;7.55;;;1.70;;
64110;SDS011;50401;48.188;11.566;2023-08-08T06:23:42;9.32;;;1.90;;
64110;SDS011;50401;48.188;11.566;2023-08-08T06:26:08;14.63;;;2.05;;
64110;SDS011;50401;48.188;11.566;2023-08-08T06:28:34;3.03;;;2.00;;
64110;SDS011;50401;48.188;11.566;2023-08-08T06:31:00;6.70;;;2.00;;
64110;SDS011;50401;48.188;11.566;2023-08-08T06:33:25;4.20;;;1.90;;
64110;SDS011;50401;48.188;11.566;2023-08-08T06:35:51;3.53;;;2.00;;
64110;SDS011;50401;48.188;11.566;2023-08-08T06:38:16;9.88;;;3.60;;
64110;SDS011;50401;48.188;11.566;2023-08-08T06:40:42;6.78;;;2.50;;
64110;SDS011;50401;48.188;11.566;2023-08-08T06:43:07;11.60;;;2.20;;
64110;SDS011;50401;48.188;11.566;2023-08-08T06:45:33;4.43;;;2.03;;
64110;SDS011;50401;48.188;11.566;2023-08-08T06:47:58;6.55;;;2.10;;
64110;SDS011;50401;48.188;11.566;2023-08-08T06:50:24;9.23;;;1.80;;
64110;SDS011;50401;48.188;11.566;2023-08-08T06:52:49;7.25;;;2.03;;
64110;SDS011;50401;48.188;11.566;2023-08-08T06:55:15;9.90;;;2.22;;
64110;SDS011;50401;48.188;11.566;2023-08-08T06:57:41;5.68;;;2.08;;
64110;SDS011;50401;48.188;11.566;2023-08-08T07:00:06;9.85;;;2.25;;
64110;SDS011;50401;48.188;11.566;2023-08-08T07:02:33;7.35;;;2.78;;
64110;SDS011;50401;48.188;11.566;2023-08-08T07:04:58;14.60;;;2.60;;
64110;SDS011;50401;48.188;11.566;2023-08-08T07:07:24;11.77;;;2.72;;
64110;SDS011;50401;48.188;11.566;2023-08-08T07:09:50;9.68;;;2.22;;
64110;SDS011;50401;48.188;11.566;2023-08-08T07:12:15;10.63;;;2.20;;
64110;SDS011;50401;48.188;11.566;2023-08-08T07:14:41;6.90;;;1.85;;
64110;SDS011;50401;48.188;11.566;2023-08-08T07:17:06;7.82;;;2.30;;
64110;SDS011;50401;48.188;11.566;2023-08-08T07:19:32;14.40;;;3.30;;
64110;SDS011;50401;48.188;11.566;2023-08-08T07:21:57;11.85;;;2.67;;
64110;SDS011;50401;48.188;11.566;2023-08-08T07:24:23;6.63;;;1.90;;
64110;SDS011;50401;48.188;11.566;2023-08-08T07:26:53;3.80;;;1.83;;
64110;SDS011;50401;48.188;11.566;2023-08-08T07:29:19;9.50;;;1.90;;
64110;SDS011;50401;48.188;11.566;2023-08-08T07:31:44;6.13;;;1.92;;
64110;SDS011;50401;48.188;11.566;2023-08-08T07:34:10;6.38;;;1.98;;
64110;SDS011;50401;48.188;11.566;2023-08-08T07:36:35;9.07;;;2.20;;
64110;SDS011;50401;48.188;11.566;2023-08-08T07:39:00;5.13;;;1.98;;
64110;SDS011;50401;48.188;11.566;2023-08-08T07:41:26;12.77;;;1.98;;
64110;SDS011;50401;48.188;11.566;2023-08-08T07:43:55;11.00;;;2.13;;
64110;SDS011;50401;48.188;11.566;2023-08-08T07:46:21;11.88;;;2.90;;
64110;SDS011;50401;48.188;11.566;2023-08-08T07:48:47;13.65;;;2.35;;
64110;SDS011;50401;48.188;11.566;2023-08-08T07:51:12;6.75;;;2.33;;
64110;SDS011;50401;48.188;11.566;2023-08-08T07:53:38;9.75;;;2.45;;
64110;SDS011;50401;48.188;11.566;2023-08-08T07:56:03;4.80;;;2.25;;
64110;SDS011;50401;48.188;11.566;2023-08-08T07:58:29;9.50;;;2.58;;
64110;SDS011;50401;48.188;11.566;2023-08-08T08:00:54;6.45;;;2.00;;
64110;SDS011;50401;48.188;11.566;2023-08-08T08:03:20;7.82;;;2.38;;
64110;SDS011;50401;48.188;11.566;2023-08-08T08:05:46;4.65;;;2.10;;
64110;SDS011;50401;48.188;11.566;2023-08-08T08:08:11;9.25;;;2.25;;
64110;SDS011;50401;48.188;11.566;2023-08-08T08:10:37;8.82;;;2.05;;
64110;SDS011;50401;48.188;11.566;2023-08-08T08:13:02;7.45;;;2.35;;
64110;SDS011;50401;48.188;11.566;2023-08-08T08:15:28;4.78;;;2.50;;
64110;SDS011;50401;48.188;11.566;2023-08-08T08:17:53;10.52;;;2.22;;
64110;SDS011;50401;48.188;11.566;2023-08-08T08:20:19;6.53;;;2.28;;
64110;SDS011;50401;48.188;11.566;2023-08-08T08:22:45;10.85;;;2.08;;
64110;SDS011;50401;48.188;11.566;2023-08-08T08:25:10;8.77;;;2.78;;
64110;SDS011;50401;48.188;11.566;2023-08-08T08:27:36;4.50;;;2.00;;
64110;SDS011;50401;48.188;11.566;2023-08-08T08:30:03;5.28;;;2.10;;
64110;SDS011;50401;48.188;11.566;2023-08-08T08:32:31;4.10;;;1.90;;
64110;SDS011;50401;48.188;11.566;2023-08-08T08:35:01;7.72;;;2.00;;
64110;SDS011;50401;48.188;11.566;2023-08-08T08:37:28;8.38;;;2.08;;
64110;SDS011;50401;48.188;11.566;2023-08-08T08:39:54;9.90;;;2.65;;
64110;SDS011;50401;48.188;11.566;2023-08-08T08:42:20;5.85;;;1.63;;
64110;SDS011;50401;48.188;11.566;2023-08-08T08:44:45;9.85;;;2.95;;
64110;SDS011;50401;48.188;11.566;2023-08-08T08:47:12;4.75;;;2.00;;
64110;SDS011;50401;48.188;11.566;2023-08-08T08:49:38;8.63;;;1.88;;
64110;SDS011;50401;48.188;11.566;2023-08-08T08:52:07;5.93;;;2.15;;
64110;SDS011;50401;48.188;11.566;2023-08-08T08:54:32;10.43;;;2.50;;
64110;SDS011;50401;48.188;11.566;2023-08-08T08:56:58;6.32;;;2.25;;
64110;SDS011;50401;48.188;11.566;2023-08-08T08:59:24;6.82;;;2.03;;
64110;SDS011;50401;48.188;11.566;2023-08-08T09:01:50;11.88;;;1.90;;
64110;SDS011;50401;48.188;11.566;2023-08-08T09:04:17;5.22;;;1.88;;
64110;SDS011;50401;48.188;11.566;2023-08-08T09:06:45;9.18;;;1.70;;
64110;SDS011;50401;48.188;11.566;2023-08-08T09:09:12;11.02;;;1.92;;
64110;SDS011;50401;48.188;11.566;2023-08-08T09:11:38;3.50;;;1.75;;
64110;SDS011;50401;48.188;11.566;2023-08-08T09:14:14;13.95;;;2.47;;
64110;SDS011;50401;48.188;11.566;2023-08-08T09:16:42;5.95;;;1.70;;
64110;SDS011;50401;48.188;11.566;2023-08-08T09:19:08;5.18;;;1.75;;
64110;SDS011;50401;48.188;11.566;2023-08-08T09:21:33;7.07;;;1.85;;
64110;SDS011;50401;48.188;11.566;2023-08-08T09:23:58;6.22;;;2.00;;
64110;SDS011;50401;48.188;11.566;2023-08-08T09:26:24;7.22;;;1.92;;
64110;SDS011;50401;48.188;11.566;2023-08-08T09:28:50;6.03;;;2.10;;
64110;SDS011;50401;48.188;11.566;2023-08-08T09:31:16;4.88;;;2.45;;
64110;SDS011;50401;48.188;11.566;2023-08-08T09:33:41;8.70;;;2.08;;
64110;SDS011;50401;48.188;11.566;2023-08-08T09:36:13;5.80;;;2.20;;
64110;SDS011;50401;48.188;11.566;2023-08-08T09:38:39;13.63;;;2.50;;
64110;SDS011;50401;48.188;11.566;2023-08-08T09:41:05;8.95;;;2.30;;
64110;SDS011;50401;48.188;11.566;2023-08-08T09:43:31;11.10;;;2.22;;
64110;SDS011;50401;48.188;11.566;2023-08-08T09:45:57;10.20;;;2.33;;
64110;SDS011;50401;48.188;11.566;2023-08-08T09:48:22;5.10;;;1.83;;
64110;SDS011;50401;48.188;11.566;2023-08-08T09:50:54;9.88;;;2.17;;
64110;SDS011;50401;48.188;11.566;2023-08-08T09:53:19;6.68;;;1.85;;
64110;SDS011;50401;48.188;11.566;2023-08-08T09:55:45;5.90;;;2.90;;
64110;SDS011;50401;48.188;11.566;2023-08-08T09:58:12;12.32;;;1.70;;
64110;SDS011;50401;48.188;11.566;2023-08-08T10:00:38;9.07;;;2.33;;
64110;SDS011;50401;48.188;11.566;2023-08-08T10:03:03;7.90;;;2.20;;
64110;SDS011;50401;48.188;11.566;2023-08-08T10:05:30;5.30;;;2.03;;
64110;SDS011;50401;48.188;11.566;2023-08-08T10:07:55;10.63;;;2.10;;
64110;SDS011;50401;48.188;11.566;2023-08-08T10:10:21;5.03;;;2.33;;
64110;SDS011;50401;48.188;11.566;2023-08-08T10:12:47;7.35;;;1.90;;
64110;SDS011;50401;48.188;11.566;2023-08-08T10:15:13;5.80;;;1.92;;
64110;SDS011;50401;48.188;11.566;2023-08-08T10:17:38;6.65;;;2.28;;
64110;SDS011;50401;48.188;11.566;2023-08-08T10:20:08;5.47;;;2.08;;
64110;SDS011;50401;48.188;11.566;2023-08-08T10:22:41;3.03;;;1.48;;
64110;SDS011;50401;48.188;11.566;2023-08-08T10:25:08;6.22;;;2.13;;
64110;SDS011;50401;48.188;11.566;2023-08-08T10:27:34;5.72;;;2.58;;
64110;SDS011;50401;48.188;11.566;2023-08-08T10:30:07;6.95;;;2.30;;
64110;SDS011;50401;48.188;11.566;2023-08-08T10:32:38;6.50;;;2.60;;
64110;SDS011;50401;48.188;11.566;2023-08-08T10:35:05;5.70;;;2.15;;
64110;SDS011;50401;48.188;11.566;2023-08-08T10:37:32;11.77;;;2.05;;
64110;SDS011;50401;48.188;11.566;2023-08-08T10:39:59;6.32;;;1.92;;
64110;SDS011;50401;48.188;11.566;2023-08-08T10:42:26;7.40;;;2.15;;
64110;SDS011;50401;48.188;11.566;2023-08-08T10:44:52;3.42;;;1.63;;
64110;SDS011;50401;48.188;11.566;2023-08-08T10:47:24;5.15;;;2.10;;
64110;SDS011;50401;48.188;11.566;2023-08-08T10:49:59;16.90;;;2.65;;
64110;SDS011;50401;48.188;11.566;2023-08-08T10:52:29;7.63;;;2.65;;
64110;SDS011;50401;48.188;11.566;2023-08-08T10:54:55;8.77;;;2.35;;
64110;SDS011;50401;48.188;11.566;2023-08-08T10:57:24;8.70;;;2.20;;
64110;SDS011;50401;48.188;11.566;2023-08-08T10:59:50;7.82;;;2.63;;
64110;SDS011;50401;48.188;11.566;2023-08-08T11:02:15;6.63;;;2.05;;
64110;SDS011;50401;48.188;11.566;2023-08-08T11:04:41;8.77;;;4.95;;
64110;SDS011;50401;48.188;11.566;2023-08-08T11:07:07;7.80;;;2.78;;
64110;SDS011;50401;48.188;11.566;2023-08-08T11:09:33;9.07;;;2.22;;
64110;SDS011;50401;48.188;11.566;2023-08-08T11:11:58;6.88;;;1.88;;
64110;SDS011;50401;48.188;11.566;2023-08-08T11:14:24;11.38;;;1.77;;
64110;SDS011;50401;48.188;11.566;2023-08-08T11:16:50;8.57;;;2.10;;
64110;SDS011;50401;48.188;11.566;2023-08-08T11:19:17;4.75;;;2.25;;
64110;SDS011;50401;48.188;11.566;2023-08-08T11:21:44;7.88;;;1.95;;
64110;SDS011;50401;48.188;11.566;2023-08-08T11:24:11;3.90;;;2.30;;
64110;SDS011;50401;48.188;11.566;2023-08-08T11:26:38;6.38;;;1.80;;
64110;SDS011;50401;48.188;11.566;2023-08-08T11:29:05;11.27;;;2.28;;
64110;SDS011;50401;48.188;11.566;2023-08-08T11:31:32;21.35;;;2.30;;
64110;SDS011;50401;48.188;11.566;2023-08-08T11:33:58;8.70;;;2.25;;
64110;SDS011;50401;48.188;11.566;2023-08-08T11:36:31;6.43;;;1.65;;
64110;SDS011;50401;48.188;11.566;2023-08-08T11:38:59;7.07;;;2.55;;
64110;SDS011;50401;48.188;11.566;2023-08-08T11:41:28;13.32;;;2.50;;
64110;SDS011;50401;48.188;11.566;2023-08-08T11:43:53;14.13;;;2.60;;
64110;SDS011;50401;48.188;11.566;2023-08-08T11:46:22;6.10;;;1.80;;
64110;SDS011;50401;48.188;11.566;2023-08-08T11:48:48;5.60;;;2.15;;
64110;SDS011;50401;48.188;11.566;2023-08-08T11:51:15;9.65;;;2.17;;
64110;SDS011;50401;48.188;11.566;2023-08-08T11:53:49;9.05;;;2.35;;
64110;SDS011;50401;48.188;11.566;2023-08-08T11:56:16;5.72;;;1.90;;
64110;SDS011;50401;48.188;11.566;2023-08-08T11:58:42;7.45;;;2.15;;
64110;SDS011;50401;48.188;11.566;2023-08-08T12:01:08;7.13;;;2.22;;
64110;SDS011;50401;48.188;11.566;2023-08-08T12:03:35;4.00;;;2.03;;
64110;SDS011;50401;48.188;11.566;2023-08-08T12:08:36;9.70;;;2.30;;
64110;SDS011;50401;48.188;11.566;2023-08-08T12:11:01;5.22;;;2.20;;
64110;SDS011;50401;48.188;11.566;2023-08-08T12:13:29;9.98;;;2.30;;
64110;SDS011;50401;48.188;11.566;2023-08-08T12:15:56;7.65;;;2.25;;
64110;SDS011;50401;48.188;11.566;2023-08-08T12:18:23;6.82;;;2.17;;
64110;SDS011;50401;48.188;11.566;2023-08-08T12:20:49;6.57;;;2.03;;
64110;SDS011;50401;48.188;11.566;2023-08-08T12:23:15;5.63;;;1.80;;
64110;SDS011;50401;48.188;11.566;2023-08-08T12:25:42;7.00;;;2.08;;
64110;SDS011;50401;48.188;11.566;2023-08-08T12:28:07;4.80;;;1.77;;
64110;SDS011;50401;48.188;11.566;2023-08-08T12:30:33;9.13;;;2.40;;
64110;SDS011;50401;48.188;11.566;2023-08-08T12:32:58;6.88;;;1.85;;
64110;SDS011;50401;48.188;11.566;2023-08-08T12:35:24;11.38;;;2.33;;
64110;SDS011;50401;48.188;11.566;2023-08-08T12:37:51;4.78;;;2.03;;
64110;SDS011;50401;48.188;11.566;2023-08-08T12:40:20;4.20;;;1.77;;
64110;SDS011;50401;48.188;11.566;2023-08-08T12:42:45;4.03;;;1.88;;
64110;SDS011;50401;48.188;11.566;2023-08-08T12:45:11;8.07;;;2.20;;
64110;SDS011;50401;48.188;11.566;2023-08-08T12:47:36;6.80;;;2.38;;
64110;SDS011;50401;48.188;11.566;2023-08-08T12:50:05;9.10;;;2.00;;
64110;SDS011;50401;48.188;11.566;2023-08-08T12:52:32;6.55;;;2.08;;
64110;SDS011;50401;48.188;11.566;2023-08-08T12:54:58;4.90;;;2.00;;
64110;SDS011;50401;48.188;11.566;2023-08-08T12:57:23;4.45;;;1.67;;
64110;SDS011;50401;48.188;11.566;2023-08-08T12:59:50;6.82;;;2.42;;
64110;SDS011;50401;48.188;11.566;2023-08-08T13:02:15;11.60;;;2.90;;
64110;SDS011;50401;48.188;11.566;2023-08-08T13:04:41;5.53;;;2.35;;
64110;SDS011;50401;48.188;11.566;2023-08-08T13:07:07;9.45;;;2.00;;
64110;SDS011;50401;48.188;11.566;2023-08-08T13:09:32;7.97;;;2.08;;
64110;SDS011;50401;48.188;11.566;2023-08-08T13:11:58;6.20;;;2.10;;
64110;SDS011;50401;48.188;11.566;2023-08-08T13:14:23;4.97;;;1.98;;
64110;SDS011;50401;48.188;11.566;2023-08-08T13:16:49;13.35;;;2.67;;
64110;SDS011;50401;48.188;11.566;2023-08-08T13:19:15;8.80;;;2.10;;
64110;SDS011;50401;48.188;11.566;2023-08-08T13:21:44;7.25;;;2.25;;
64110;SDS011;50401;48.188;11.566;2023-08-08T13:24:10;5.75;;;2.00;;
64110;SDS011;50401;48.188;11.566;2023-08-08T13:26:38;3.92;;;1.65;;
64110;SDS011;50401;48.188;11.566;2023-08-08T13:29:04;9.70;;;2.20;;
64110;SDS011;50401;48.188;11.566;2023-08-08T13:31:29;6.15;;;2.60;;
64110;SDS011;50401;48.188;11.566;2023-08-08T13:33:55;9.73;;;2.28;;
64110;SDS011;50401;48.188;11.566;2023-08-08T13:36:20;6.78;;;2.75;;
64110;SDS011;50401;48.188;11.566;2023-08-08T13:38:46;5.50;;;2.03;;
64110;SDS011;50401;48.188;11.566;2023-08-08T13:41:11;10.27;;;2.08;;
64110;SDS011;50401;48.188;11.566;2023-08-08T13:43:37;10.05;;;2.58;;
64110;SDS011;50401;48.188;11.566;2023-08-08T13:46:02;6.22;;;2.63;;
64110;SDS011;50401;48.188;11.566;2023-08-08T13:48:32;3.63;;;2.10;;
64110;SDS011;50401;48.188;11.566;2023-08-08T13:50:58;5.60;;;2.17;;
64110;SDS011;50401;48.188;11.566;2023-08-08T13:53:23;5.03;;;2.47;;
64110;SDS011;50401;48.188;11.566;2023-08-08T13:55:48;6.88;;;2.20;;
64110;SDS011;50401;48.188;11.566;2023-08-08T13:58:14;9.25;;;2.78;;
64110;SDS011;50401;48.188;11.566;2023-08-08T14:00:39;8.27;;;2.20;;
64110;SDS011;50401;48.188;11.566;2023-08-08T14:03:06;7.45;;;2.20;;
64110;SDS011;50401;48.188;11.566;2023-08-08T14:05:31;5.78;;;2.42;;
64110;SDS011;50401;48.188;11.566;2023-08-08T14:07:56;5.00;;;2.33;;
64110;SDS011;50401;48.188;11.566;2023-08-08T14:10:22;10.93;;;2.85;;
64110;SDS011;50401;48.188;11.566;2023-08-08T14:12:47;6.50;;;3.10;;
64110;SDS011;50401;48.188;11.566;2023-08-08T14:15:13;9.48;;;3.40;;
64110;SDS011;50401;48.188;11.566;2023-08-08T14:17:38;7.70;;;2.67;;
64110;SDS011;50401;48.188;11.566;2023-08-08T14:20:04;10.73;;;2.65;;
64110;SDS011;50401;48.188;11.566;2023-08-08T14:22:30;11.13;;;2.75;;
64110;SDS011;50401;48.188;11.566;2023-08-08T14:24:55;8.05;;;2.50;;
64110;SDS011;50401;48.188;11.566;2023-08-08T14:27:21;8.27;;;2.78;;
64110;SDS011;50401;48.188;11.566;2023-08-08T14:29:47;19.38;;;3.08;;